Kingman, AZ

4:08 PM MST on December 04, 2016 (GMT -0700)
Legacy | | Change Station

Elev 3389 ft 35.23 °N, 114.02 °W | Updated 13 seconds ago

Clear
Clear
63.7 °F
Feels Like 63.7 °F
N
2.2
Wind Variable Wind from NE
Gusts 2.2 mph

Today
High -- | Low -- °F
--% Chance of Precip.
Yesterday
High -- | Low -- °F
Precip. -- in
Pressure 29.95 in
Visibility 10.0 miles
Clouds Clear
Dew Point 35 °F
Humidity 34%
Rainfall 0.00 in
Snow Depth Not available.
7:29 AM 5:23 PM
Waxing Crescent, 26% visible
METAR KIGM 042251Z AUTO 00000KT 10SM CLR 16/M17 A3004 RMK AO2 SLP141 T01611167
Pressure 29.95 in
Visibility 10.0 miles
Clouds Clear
Dew Point 35 °F
Humidity 34%
Rainfall 0.00 in
Snow Depth Not available.
7:29 AM 5:23 PM
Waxing Crescent, 26% visible
METAR KIGM 042251Z AUTO 00000KT 10SM CLR 16/M17 A3004 RMK AO2 SLP141 T01611167

10-Day Weather Forecast

Almanac

Astronomy

Dec. 04, 2016 Rise Set
Actual Time
Civil Twilight
Nautical Twilight
Astronomical Twilight
Moon
Length of Visible Light
Length of Day
Tomorrow will be .
, % of the Moon is Illuminated

Today's Extremes

State Highs State Lows

Community

WunderPhotos

Upload Photos

1,955,695 photos uploaded!

WunderBlog® & News

Nearby

Air Quality

  Air Quality AQ Index Pollutant
Not available.

Snow Depth

Station Depth Elevation

Earthquake Activity

City Distance Mag. Time & Date
Minimum magnitude displayed is 2.5.

Coastal Water Temperatures

Place Temperature

Stations

Nearby Weather Stations

Station Location Temp. Windchill Dew Point Humidity Wind Precip. Elev Updated Type
                   

Watches & Warnings

There are currently no watches in effect.